Time;durP1;ratioP1;P1;durP2;ratioP2;P2;SDS_P1;SDS_P2;PMS_P1;PMS_P2;Temp;Humidity;BMP_temperature;BMP_pressure;BME280_temperature;BME280_humidity;BME280_pressure;Samples;Min_cycle;Max_cycle;Signal;HPM_P1;HPM_P2
2023/01/25 00:02:23;;;;;;;16.83;10.10;;;;;;;2.12;100.00;97046.63;6192092;23;20158;-88
2023/01/25 00:05:03;;;;;;;18.07;11.43;;;;;;;2.13;100.00;97032.97;6191578;23;20177;-87
2023/01/25 00:10:15;;;;;;;16.57;11.13;;;;;;;2.40;100.00;97032.19;6189634;23;20499;-88
2023/01/25 00:13:10;;;;;;;16.50;11.17;;;;;;;2.63;100.00;97035.09;6191206;23;20273;-88
2023/01/25 00:15:48;;;;;;;16.67;11.40;;;;;;;2.58;100.00;97037.91;6191155;23;20194;-88
2023/01/25 00:18:17;;;;;;;19.23;12.00;;;;;;;2.53;100.00;97044.97;6191041;23;20182;-88
2023/01/25 00:20:47;;;;;;;16.67;11.20;;;;;;;2.45;100.00;97033.66;6191285;23;20729;-87
2023/01/25 00:23:13;;;;;;;16.43;10.93;;;;;;;2.25;100.00;97024.66;6190347;23;20171;-87
2023/01/25 00:25:45;;;;;;;16.03;11.20;;;;;;;2.19;100.00;97025.81;6190787;23;20198;-87
2023/01/25 00:28:18;;;;;;;16.63;10.83;;;;;;;2.24;100.00;97031.47;6192213;23;20218;-87
2023/01/25 00:30:51;;;;;;;16.40;10.70;;;;;;;2.24;100.00;97034.00;6190393;23;20167;-87
2023/01/25 00:33:59;;;;;;;18.57;11.27;;;;;;;2.29;100.00;97033.75;6190669;23;20174;-87
2023/01/25 00:36:41;;;;;;;17.67;12.33;;;;;;;2.37;100.00;97029.81;6097943;23;20203;-88
2023/01/25 00:39:12;;;;;;;20.23;12.87;;;;;;;2.41;100.00;97033.00;6186067;23;20186;-87
2023/01/25 00:41:41;;;;;;;19.00;12.97;;;;;;;2.42;100.00;97027.03;6190267;23;20162;-88
2023/01/25 00:44:08;;;;;;;19.03;12.20;;;;;;;2.49;100.00;97025.75;6190461;23;20248;-86
2023/01/25 00:46:43;;;;;;;19.07;12.83;;;;;;;2.61;100.00;97029.28;6189761;23;20194;-88
2023/01/25 00:49:30;;;;;;;19.23;13.27;;;;;;;2.71;100.00;97023.53;6188918;23;20510;-88
2023/01/25 00:51:58;;;;;;;21.13;12.07;;;;;;;2.68;100.00;97020.38;6189773;23;20186;-88
2023/01/25 00:54:28;;;;;;;19.83;13.00;;;;;;;2.73;100.00;97023.44;6189427;23;20641;-87
2023/01/25 00:56:57;;;;;;;19.13;12.30;;;;;;;2.80;100.00;97023.91;6191053;23;20201;-88
2023/01/25 00:59:29;;;;;;;22.70;13.10;;;;;;;2.79;100.00;97023.09;6191582;23;20205;-88
2023/01/25 01:02:17;;;;;;;21.23;12.70;;;;;;;2.65;100.00;97031.56;6191164;23;20548;-88
2023/01/25 01:04:46;;;;;;;19.30;12.73;;;;;;;2.70;100.00;97027.00;6190817;23;20161;-89
2023/01/25 01:07:15;;;;;;;18.13;11.77;;;;;;;2.61;100.00;97029.28;6190275;23;20198;-89
2023/01/25 01:09:47;;;;;;;16.67;12.17;;;;;;;2.66;100.00;97029.84;6190650;23;20210;-88
2023/01/25 01:12:20;;;;;;;20.63;12.57;;;;;;;2.73;100.00;97031.06;6190020;23;20260;-88
2023/01/25 01:15:18;;;;;;;19.43;12.10;;;;;;;2.74;100.00;97025.91;6190061;23;20222;-88
2023/01/25 01:18:10;;;;;;;20.03;11.83;;;;;;;2.80;100.00;97032.34;6183891;23;20175;-87
2023/01/25 01:20:39;;;;;;;19.03;11.67;;;;;;;2.45;100.00;97029.38;6170955;23;20506;-87
2023/01/25 01:23:14;;;;;;;17.83;11.73;;;;;;;2.43;100.00;97028.66;6191493;23;20181;-88
2023/01/25 01:26:01;;;;;;;19.53;12.00;;;;;;;2.43;100.00;97026.94;6189316;23;20197;-88
2023/01/25 01:31:56;;;;;;;18.00;11.80;;;;;;;2.63;100.00;97015.56;6147994;23;20229;-87
2023/01/25 01:34:43;;;;;;;19.53;12.70;;;;;;;2.69;100.00;97011.84;6191057;23;20186;-88
2023/01/25 01:38:01;;;;;;;20.50;12.90;;;;;;;2.58;100.00;97006.59;6190823;23;20678;-88
2023/01/25 01:43:30;;;;;;;18.23;11.77;;;;;;;2.50;100.00;97012.16;6189490;23;20166;-88
2023/01/25 01:46:19;;;;;;;;;;;;;;;;;;;;;
2023/01/25 01:48:57;;;;;;;16.90;10.10;;;;;;;2.37;100.00;97012.03;6179164;23;20245;-87
2023/01/25 01:55:13;;;;;;;15.53;9.97;;;;;;;2.22;100.00;97007.06;6099494;23;20186;-87
2023/01/25 01:58:25;;;;;;;18.27;11.93;;;;;;;2.28;100.00;97007.53;6109183;23;20742;-87
2023/01/25 02:01:19;;;;;;;15.00;10.37;;;;;;;2.29;100.00;97008.34;6190595;23;20166;-88
2023/01/25 02:07:18;;;;;;;14.57;10.00;;;;;;;2.23;100.00;97006.97;6187883;23;20237;-87
2023/01/25 02:10:18;;;;;;;15.67;10.33;;;;;;;2.25;100.00;97006.88;6189289;23;20177;-88
2023/01/25 02:13:17;;;;;;;17.40;11.33;;;;;;;2.28;100.00;97011.78;6190716;23;20186;-89
2023/01/25 02:16:03;;;;;;;18.90;11.63;;;;;;;2.28;100.00;97007.53;6189919;23;20198;-87
2023/01/25 02:18:52;;;;;;;16.57;10.83;;;;;;;2.27;100.00;97000.78;6190334;23;20174;-88
2023/01/25 02:21:54;;;;;;;18.07;11.90;;;;;;;2.26;100.00;97003.44;6189783;23;20506;-88
2023/01/25 02:24:28;;;;;;;17.30;10.97;;;;;;;2.35;100.00;97006.22;6191754;23;20165;-88
2023/01/25 02:27:24;;;;;;;15.03;10.90;;;;;;;2.25;100.00;97001.78;6190885;23;20208;-87
2023/01/25 02:30:27;;;;;;;16.10;10.53;;;;;;;2.27;100.00;96999.97;6134101;23;20245;-88
2023/01/25 02:32:56;;;;;;;16.33;10.67;;;;;;;2.27;100.00;97002.53;6190396;23;20203;-88
2023/01/25 02:35:36;;;;;;;16.27;11.23;;;;;;;2.13;100.00;97000.78;6190726;23;20195;-88
2023/01/25 02:38:03;;;;;;;18.87;11.03;;;;;;;1.99;100.00;96999.03;6190522;23;20221;-88
2023/01/25 02:40:35;;;;;;;19.17;11.53;;;;;;;2.16;100.00;97007.41;6189968;23;20178;-88
2023/01/25 02:43:04;;;;;;;18.00;10.77;;;;;;;2.14;100.00;97002.41;6191169;23;20158;-87
2023/01/25 02:45:31;;;;;;;17.60;10.83;;;;;;;2.21;100.00;96993.53;6191097;23;20250;-87
2023/01/25 02:48:00;;;;;;;18.37;11.63;;;;;;;2.28;100.00;96999.06;6190315;23;20178;-88
2023/01/25 02:50:28;;;;;;;19.27;10.87;;;;;;;2.22;100.00;96994.34;6190951;23;20184;-87
2023/01/25 02:53:02;;;;;;;16.97;11.07;;;;;;;2.19;100.00;96989.44;6189671;23;20204;-88
2023/01/25 02:55:30;;;;;;;19.83;11.50;;;;;;;2.16;100.00;96987.88;6190065;23;20281;-88
2023/01/25 02:58:10;;;;;;;17.23;11.67;;;;;;;2.23;100.00;96994.25;6190010;23;20500;-87
2023/01/25 03:00:48;;;;;;;20.00;11.60;;;;;;;2.27;100.00;96990.63;6191008;23;20174;-88
2023/01/25 03:03:23;;;;;;;16.27;10.43;;;;;;;2.14;100.00;96987.16;6189462;23;20162;-88
2023/01/25 03:05:49;;;;;;;17.07;11.17;;;;;;;2.02;100.00;96985.34;6190922;23;20225;-88
2023/01/25 03:08:21;;;;;;;16.80;11.03;;;;;;;2.00;100.00;96987.16;6189568;23;20174;-88
2023/01/25 03:10:53;;;;;;;14.93;10.40;;;;;;;2.11;100.00;96991.63;6188753;23;20649;-87
2023/01/25 03:13:28;;;;;;;16.70;10.17;;;;;;;2.29;100.00;96990.53;6190580;23;20186;-88
2023/01/25 03:16:08;;;;;;;14.67;9.67;;;;;;;2.31;100.00;96978.56;6191011;23;20681;-88
2023/01/25 03:18:53;;;;;;;12.30;9.33;;;;;;;2.40;100.00;96976.28;6188364;23;20220;-87
2023/01/25 03:21:21;;;;;;;13.53;9.50;;;;;;;2.48;100.00;96972.47;6189501;23;20162;-87
2023/01/25 03:23:59;;;;;;;15.00;9.17;;;;;;;2.46;100.00;96970.03;6190715;23;20197;-87
2023/01/25 03:26:29;;;;;;;13.30;9.40;;;;;;;2.43;100.00;96971.00;6190456;23;20210;-87
2023/01/25 03:29:19;;;;;;;12.97;9.50;;;;;;;2.55;100.00;96974.53;6189549;23;20657;-88
2023/01/25 03:31:52;;;;;;;12.83;8.87;;;;;;;2.62;100.00;96970.72;6189427;23;20349;-88
2023/01/25 03:34:24;;;;;;;14.37;9.17;;;;;;;2.71;100.00;96972.69;6188791;23;20173;-87
2023/01/25 03:36:51;;;;;;;13.47;9.20;;;;;;;2.76;100.00;96973.22;6186825;23;20202;-87
2023/01/25 03:39:20;;;;;;;12.97;9.17;;;;;;;2.80;100.00;96967.97;6188875;23;20170;-87
2023/01/25 03:41:53;;;;;;;13.60;9.73;;;;;;;2.82;99.98;96972.03;6188277;23;20229;-88
2023/01/25 03:44:20;;;;;;;14.77;10.40;;;;;;;2.82;99.45;96972.03;6188745;23;20185;-87
2023/01/25 03:46:46;;;;;;;16.00;10.07;;;;;;;2.81;99.75;96964.50;6188757;23;20198;-87
2023/01/25 03:49:24;;;;;;;13.23;9.57;;;;;;;2.84;99.72;96972.75;6189086;23;20189;-88
2023/01/25 03:52:02;;;;;;;14.30;9.93;;;;;;;2.82;99.63;96969.50;6188857;23;20162;-88
2023/01/25 03:54:40;;;;;;;13.00;8.83;;;;;;;2.84;99.85;96961.78;6188212;23;20637;-88
2023/01/25 03:57:12;;;;;;;13.33;9.20;;;;;;;2.89;99.59;96964.81;6189984;23;20197;-87
2023/01/25 03:59:38;;;;;;;13.47;9.37;;;;;;;2.96;99.13;96961.81;6190474;23;20162;-88
2023/01/25 04:02:13;;;;;;;13.13;9.83;;;;;;;2.91;98.14;96966.38;6189638;23;20234;-88
2023/01/25 04:04:41;;;;;;;14.47;9.87;;;;;;;2.91;98.79;96963.81;6190326;23;20281;-89
2023/01/25 04:07:14;;;;;;;13.00;9.80;;;;;;;2.81;99.25;96970.41;6188680;23;20205;-88
2023/01/25 04:09:51;;;;;;;12.17;8.67;;;;;;;2.75;98.79;96965.69;6189035;23;20165;-88
2023/01/25 04:12:33;;;;;;;15.20;10.03;;;;;;;2.74;99.82;96964.06;6188635;23;20182;-87
2023/01/25 04:15:02;;;;;;;14.13;9.40;;;;;;;2.57;100.00;96966.81;6184436;23;20178;-88
2023/01/25 04:17:37;;;;;;;12.63;9.67;;;;;;;2.38;100.00;96962.03;6188414;23;20641;-88
2023/01/25 04:20:12;;;;;;;13.00;9.13;;;;;;;2.39;100.00;96959.41;6188864;23;20193;-87
2023/01/25 04:22:48;;;;;;;13.30;9.20;;;;;;;2.38;100.00;96957.75;6187566;23;20154;-88
2023/01/25 04:25:21;;;;;;;13.57;9.23;;;;;;;2.32;100.00;96957.31;6188229;23;20494;-88
2023/01/25 04:28:00;;;;;;;15.10;9.60;;;;;;;2.22;100.00;96953.69;6188762;23;20174;-87
2023/01/25 04:30:34;;;;;;;15.00;9.70;;;;;;;2.08;100.00;96952.78;6190038;23;20511;-87
2023/01/25 04:33:13;;;;;;;15.73;10.13;;;;;;;2.08;100.00;96945.19;6192769;23;20281;-88
2023/01/25 04:35:53;;;;;;;14.83;9.47;;;;;;;2.21;100.00;96954.59;6191722;23;20240;-86
2023/01/25 04:38:27;;;;;;;16.20;9.90;;;;;;;2.35;100.00;96954.56;6191926;23;20190;-87
2023/01/25 04:41:00;;;;;;;14.67;10.53;;;;;;;2.35;100.00;96952.03;6192043;23;20181;-87
2023/01/25 04:43:27;;;;;;;15.13;9.53;;;;;;;2.38;100.00;96949.31;6191850;23;20166;-87
2023/01/25 04:45:56;;;;;;;13.93;9.37;;;;;;;2.23;100.00;96947.72;6190063;23;20194;-87
2023/01/25 04:48:30;;;;;;;13.17;9.27;;;;;;;2.30;100.00;96939.63;6190942;23;20186;-88
2023/01/25 04:54:02;;;;;;;13.23;8.33;;;;;;;2.30;100.00;96931.19;6189034;23;20253;-87
2023/01/25 04:56:32;;;;;;;16.23;9.03;;;;;;;2.21;100.00;96936.81;6174158;23;20202;-87
2023/01/25 04:59:03;;;;;;;15.13;9.30;;;;;;;2.21;100.00;96931.72;6191680;23;20454;-87
2023/01/25 05:01:36;;;;;;;13.03;8.77;;;;;;;2.07;100.00;96927.47;6191927;23;20174;-87
2023/01/25 05:04:03;;;;;;;16.77;9.17;;;;;;;2.04;100.00;96927.66;6191581;23;20216;-87
2023/01/25 05:06:34;;;;;;;13.53;9.27;;;;;;;2.15;100.00;96925.28;6190072;23;20203;-87
2023/01/25 05:09:07;;;;;;;13.77;8.67;;;;;;;2.14;100.00;96922.84;6191464;23;20166;-87
2023/01/25 05:11:43;;;;;;;14.03;8.77;;;;;;;2.08;100.00;96918.97;6191487;23;20155;-87
2023/01/25 05:14:16;;;;;;;14.50;8.60;;;;;;;2.06;100.00;96919.03;6191112;23;20184;-87
2023/01/25 05:16:46;;;;;;;12.37;8.13;;;;;;;2.22;100.00;96913.84;6190885;23;20194;-87
2023/01/25 05:19:15;;;;;;;15.30;9.73;;;;;;;2.32;100.00;96911.56;6190190;23;20566;-87
2023/01/25 05:21:58;;;;;;;14.57;10.00;;;;;;;2.16;100.00;96910.84;6190068;23;20570;-87
2023/01/25 05:24:35;;;;;;;14.57;8.80;;;;;;;2.25;100.00;96910.31;6189935;23;20178;-87
2023/01/25 05:27:13;;;;;;;16.97;9.43;;;;;;;2.27;100.00;96906.78;6189448;23;20193;-87
2023/01/25 05:32:34;;;;;;;16.87;9.63;;;;;;;2.16;100.00;96900.69;6177012;23;20178;-87
2023/01/25 05:35:02;;;;;;;12.90;8.80;;;;;;;2.14;100.00;96900.78;6187114;23;20420;-87
2023/01/25 05:37:31;;;;;;;12.33;8.77;;;;;;;2.17;100.00;96912.50;6189081;23;20182;-87
2023/01/25 05:40:05;;;;;;;14.03;8.53;;;;;;;2.04;100.00;96912.41;6190072;23;20174;-87
2023/01/25 05:45:52;;;;;;;12.03;7.63;;;;;;;1.72;100.00;96915.16;6174881;23;20202;-86
2023/01/25 05:54:57;;;;;;;13.37;8.20;;;;;;;1.73;100.00;96913.41;6055056;23;20201;-87
2023/01/25 06:08:19;;;;;;;;;;;;;;;;;;;;;
2023/01/25 06:23:45;;;;;;;13.90;8.00;;;;;;;2.13;100.00;96900.88;6178203;23;20814;-87
2023/01/25 06:34:09;;;;;;;13.90;8.10;;;;;;;2.24;100.00;96884.09;5893543;24;20256;-87
2023/01/25 06:57:33;;;;;;;12.63;8.00;;;;;;;1.88;100.00;96871.06;6147742;23;20209;-88
2023/01/25 07:04:15;;;;;;;12.90;8.53;;;;;;;1.70;100.00;96866.19;6184525;23;20234;-84
2023/01/25 07:21:25;;;;;;;9.87;6.73;;;;;;;1.56;100.00;96870.41;6022412;23;20747;-87
2023/01/25 07:24:13;;;;;;;10.03;6.87;;;;;;;1.43;100.00;96857.63;5981350;23;20266;-87
2023/01/25 07:34:04;;;;;;;9.67;6.73;;;;;;;1.74;100.00;96851.56;6155592;23;20226;-87
2023/01/25 07:37:08;;;;;;;7.80;6.30;;;;;;;1.86;100.00;96855.91;6031682;23;20213;-87
2023/01/25 07:51:10;;;;;;;22.53;15.00;;;;;;;2.03;100.00;96860.00;5829271;24;20263;-88
2023/01/25 07:56:45;;;;;;;10.53;7.43;;;;;;;2.17;99.86;96852.34;6150655;23;20198;-87
2023/01/25 07:59:16;;;;;;;9.53;7.07;;;;;;;2.20;99.38;96859.78;6152549;23;20175;-87
2023/01/25 08:01:50;;;;;;;8.57;6.63;;;;;;;2.03;99.50;96853.19;6153628;23;20163;-87
2023/01/25 08:04:22;;;;;;;12.23;7.47;;;;;;;2.08;100.00;96868.16;6153573;23;20352;-87
2023/01/25 08:06:59;;;;;;;9.60;7.07;;;;;;;2.17;99.98;96859.94;6154548;23;20225;-87
2023/01/25 08:09:39;;;;;;;9.67;6.90;;;;;;;2.23;99.22;96864.66;6156647;23;20163;-87
2023/01/25 08:22:17;;;;;;;8.43;6.40;;;;;;;1.63;100.00;96866.63;6146691;23;20181;-89
2023/01/25 08:25:00;;;;;;;10.70;7.33;;;;;;;1.54;100.00;96859.56;6053146;23;20808;-86
2023/01/25 08:34:06;;;;;;;8.97;7.03;;;;;;;1.52;100.00;96852.03;6140063;23;20182;-88
2023/01/25 08:40:34;;;;;;;;;;;;;;;;;;;;;
2023/01/25 08:53:11;;;;;;;9.10;7.30;;;;;;;1.87;100.00;96839.78;6066910;23;20183;-87
2023/01/25 08:56:11;;;;;;;;;;;;;;;;;;;;;
2023/01/25 09:24:23;;;;;;;9.83;7.67;;;;;;;1.79;100.00;96825.91;6141745;23;20661;-87
2023/01/25 09:27:00;;;;;;;9.67;7.30;;;;;;;1.71;100.00;96827.19;6190236;23;20237;-85
2023/01/25 09:29:31;;;;;;;10.77;7.53;;;;;;;1.60;100.00;96821.91;6190440;23;20158;-84
2023/01/25 09:35:51;;;;;;;11.00;7.90;;;;;;;1.60;100.00;96823.63;6038191;23;20200;-87
2023/01/25 09:49:07;;;;;;;9.27;7.40;;;;;;;2.02;100.00;96812.63;6119841;23;20469;-87
2023/01/25 09:52:12;;;;;;;9.53;7.40;;;;;;;2.08;100.00;96813.09;6187643;23;20197;-87
2023/01/25 10:05:30;;;;;;;10.67;7.60;;;;;;;2.33;97.20;96806.47;6068641;23;20164;-87
2023/01/25 10:22:24;;;;;;;10.13;7.90;;;;;;;1.98;100.00;96794.22;5872691;24;20190;-87
2023/01/25 10:39:09;;;;;;;;;;;;;;;;;;;;;
2023/01/25 10:41:54;;;;;;;12.93;7.80;;;;;;;2.51;95.77;96763.81;6187340;23;20178;-87
2023/01/25 11:19:19;;;;;;;;;;;;;;;;;;;;;
2023/01/25 11:31:31;;;;;;;15.53;7.80;;;;;;;2.23;100.00;96702.06;6064576;23;20183;-85
2023/01/25 11:51:48;;;;;;;13.43;9.13;;;;;;;2.66;95.26;96659.44;6031053;23;20181;-89
2023/01/25 12:50:54;;;;;;;9.90;7.07;;;;;;;1.70;100.00;96574.25;5868907;24;20252;-89
2023/01/25 13:05:08;;;;;;;;;;;;;;;;;;;;;
2023/01/25 13:11:38;;;;;;;14.10;8.67;;;;;;;1.74;100.00;96547.72;5999370;23;20357;-88
2023/01/25 13:42:18;;;;;;;20.47;12.17;;;;;;;2.26;96.29;96530.81;6063173;23;20181;-88
2023/01/25 13:48:33;;;;;;;16.97;11.73;;;;;;;1.93;97.95;96527.03;5858731;23;20309;-88
2023/01/25 14:00:58;;;;;;;18.60;11.23;;;;;;;2.21;98.10;96513.34;6182594;23;20557;-87
2023/01/25 14:04:03;;;;;;;20.00;11.60;;;;;;;2.36;97.22;96511.50;6182258;23;20198;-87
2023/01/25 14:06:43;;;;;;;97.00;63.60;;;;;;;2.34;97.52;96508.25;6166106;23;20282;-88
2023/01/25 14:09:39;;;;;;;38.53;24.67;;;;;;;2.38;97.11;96507.13;6155539;23;20167;-88
2023/01/25 14:23:28;;;;;;;;;;;;;;;;;;;;;
2023/01/25 15:25:16;;;;;;;23.40;13.53;;;;;;;2.35;96.92;96443.81;6186402;23;20202;-87
2023/01/25 15:47:49;;;;;;;25.90;14.40;;;;;;;2.07;100.00;96434.72;6143695;23;20717;-87
2023/01/25 15:57:31;;;;;;;22.13;12.97;;;;;;;2.32;98.76;96434.66;6067239;23;20229;-88
2023/01/25 16:00:39;;;;;;;18.97;11.80;;;;;;;2.29;97.52;96431.53;6084166;23;20909;-87
2023/01/25 16:07:08;;;;;;;23.57;13.27;;;;;;;2.22;97.75;96415.88;6152620;23;20696;-87
2023/01/25 16:17:08;;;;;;;22.27;13.57;;;;;;;2.07;100.00;96420.28;6097184;23;20255;-88
2023/01/25 16:20:13;;;;;;;22.63;12.53;;;;;;;2.12;99.61;96412.34;5955381;24;20220;-89
2023/01/25 16:23:12;;;;;;;;;;;;;;;;;;;;;
2023/01/25 16:26:19;;;;;;;;;;;;;;;;;;;;;
2023/01/25 16:35:49;;;;;;;21.40;13.00;;;;;;;2.25;99.20;96413.16;6100046;23;20189;-88
2023/01/25 16:39:15;;;;;;;21.53;13.50;;;;;;;2.16;98.89;96395.97;6155329;23;20188;-88
2023/01/25 16:45:31;;;;;;;25.23;14.23;;;;;;;2.29;98.66;96394.25;6032972;23;20172;-88
2023/01/25 16:49:03;;;;;;;25.60;14.50;;;;;;;2.41;97.84;96392.56;6156739;23;20269;-87
2023/01/25 16:52:32;;;;;;;23.23;13.23;;;;;;;2.46;97.78;96387.16;6157596;23;20185;-87
2023/01/25 17:05:33;;;;;;;22.83;13.83;;;;;;;2.57;96.50;96382.94;6177737;23;20177;-89
2023/01/25 17:11:41;;;;;;;22.90;14.23;;;;;;;2.30;97.67;96367.09;6182818;23;20182;-87
2023/01/25 17:14:58;;;;;;;23.77;13.93;;;;;;;2.28;97.45;96361.31;6186560;23;20228;-88
2023/01/25 17:17:39;;;;;;;22.37;13.80;;;;;;;2.17;97.89;96356.97;6061562;23;20217;-88
2023/01/25 17:23:53;;;;;;;18.10;11.33;;;;;;;2.02;97.40;96352.94;6164733;23;20235;-88
2023/01/25 17:27:20;;;;;;;18.90;11.73;;;;;;;1.87;98.74;96349.72;6185693;23;20265;-88
2023/01/25 17:32:39;;;;;;;15.87;11.50;;;;;;;1.97;97.16;96338.00;6189925;23;20404;-88
2023/01/25 17:47:46;;;;;;;20.50;12.30;;;;;;;1.85;98.67;96331.25;6179008;23;20241;-88
2023/01/25 17:51:19;;;;;;;17.17;10.70;;;;;;;1.76;96.80;96336.13;6184112;23;20174;-88
2023/01/25 17:53:56;;;;;;;16.50;10.07;;;;;;;1.70;98.83;96329.75;6182694;23;20663;-88
2023/01/25 17:57:09;;;;;;;18.17;11.53;;;;;;;1.81;98.75;96336.63;6183207;23;20692;-88
2023/01/25 17:59:57;;;;;;;18.10;10.87;;;;;;;1.83;97.57;96322.09;6182883;23;20712;-87
2023/01/25 18:02:31;;;;;;;19.30;12.60;;;;;;;1.63;97.67;96321.72;6183963;23;20184;-87
2023/01/25 18:05:08;;;;;;;20.03;14.93;;;;;;;1.62;97.07;96314.22;6183413;23;20568;-87
2023/01/25 18:07:49;;;;;;;58.00;35.33;;;;;;;1.57;97.07;96317.06;6184498;23;20202;-86
2023/01/25 18:10:38;;;;;;;17.90;11.63;;;;;;;1.43;97.82;96316.38;6185187;23;20467;-88
2023/01/25 18:13:18;;;;;;;17.53;11.80;;;;;;;1.39;98.39;96313.22;6184679;23;20154;-87
2023/01/25 18:16:25;;;;;;;20.37;13.30;;;;;;;1.39;98.77;96316.56;6185739;23;20677;-87
2023/01/25 18:19:12;;;;;;;18.47;11.53;;;;;;;1.41;98.02;96305.50;6185357;23;20192;-87
2023/01/25 18:21:41;;;;;;;15.83;10.60;;;;;;;1.45;97.43;96300.13;6184641;23;20205;-87
2023/01/25 18:24:23;;;;;;;16.10;11.07;;;;;;;1.42;98.11;96299.53;6186549;23;20178;-86
2023/01/25 18:27:23;;;;;;;19.87;15.43;;;;;;;1.46;97.87;96294.16;6184813;23;20196;-87
2023/01/25 18:29:55;;;;;;;15.87;10.47;;;;;;;1.48;96.96;96288.97;6182942;23;20216;-87
2023/01/25 18:32:25;;;;;;;15.83;10.17;;;;;;;1.35;96.40;96288.97;6186984;23;20163;-87
2023/01/25 18:34:51;;;;;;;18.10;13.00;;;;;;;1.37;97.65;96297.28;6185986;23;20712;-88
2023/01/25 18:37:32;;;;;;;18.10;12.80;;;;;;;1.42;98.12;96296.97;6185849;23;20677;-88
2023/01/25 18:40:22;;;;;;;17.17;11.70;;;;;;;1.45;97.32;96297.59;6187201;23;20180;-87
2023/01/25 18:42:51;;;;;;;16.70;10.90;;;;;;;1.47;96.52;96293.22;6171185;23;20182;-87
2023/01/25 18:45:20;;;;;;;19.67;12.23;;;;;;;1.46;96.21;96289.06;6187981;23;20185;-88
2023/01/25 18:47:51;;;;;;;15.77;10.47;;;;;;;1.55;96.38;96282.53;6186805;23;20209;-88
2023/01/25 18:50:22;;;;;;;19.47;11.40;;;;;;;1.61;95.25;96279.59;6187367;23;20214;-88
2023/01/25 18:52:50;;;;;;;16.27;10.00;;;;;;;1.65;94.83;96278.47;6186615;23;20159;-87
2023/01/25 18:55:17;;;;;;;15.57;10.40;;;;;;;1.74;94.65;96275.31;6186069;23;20185;-87
2023/01/25 18:57:48;;;;;;;15.47;10.17;;;;;;;1.67;95.40;96262.25;6186817;23;20596;-88
2023/01/25 19:00:20;;;;;;;17.87;11.97;;;;;;;1.59;95.98;96268.75;6186019;23;20180;-88
2023/01/25 19:02:46;;;;;;;19.40;13.23;;;;;;;1.48;96.56;96266.13;6186368;23;20189;-87
2023/01/25 19:05:13;;;;;;;22.87;14.87;;;;;;;1.52;96.84;96268.38;6185965;23;20174;-87
2023/01/25 19:07:43;;;;;;;21.70;12.40;;;;;;;1.59;96.14;96271.28;6185685;23;20201;-87
2023/01/25 19:10:14;;;;;;;17.00;11.17;;;;;;;1.60;94.88;96261.03;6185660;23;20213;-87
2023/01/25 19:12:42;;;;;;;24.17;16.43;;;;;;;1.65;95.20;96253.91;6186040;23;20638;-87
2023/01/25 19:15:12;;;;;;;37.50;23.83;;;;;;;1.69;95.34;96257.88;6185238;23;20181;-88
2023/01/25 19:17:40;;;;;;;21.23;14.60;;;;;;;1.62;94.54;96253.31;6184628;23;20253;-87
2023/01/25 19:20:08;;;;;;;17.90;10.93;;;;;;;1.58;93.87;96239.19;6184212;23;20186;-88
2023/01/25 19:22:35;;;;;;;18.20;12.33;;;;;;;1.68;94.16;96241.03;6183688;23;20174;-88
2023/01/25 19:25:01;;;;;;;16.03;10.80;;;;;;;1.78;93.88;96240.38;6184284;23;20184;-88
2023/01/25 19:27:30;;;;;;;18.13;10.53;;;;;;;1.93;93.51;96231.66;6183840;23;20209;-88
2023/01/25 19:29:57;;;;;;;13.97;10.37;;;;;;;2.06;92.33;96225.66;6185483;23;20170;-87
2023/01/25 19:32:23;;;;;;;18.50;10.23;;;;;;;2.16;91.60;96227.50;6185133;23;20196;-88
2023/01/25 19:34:52;;;;;;;15.03;11.03;;;;;;;2.23;90.77;96226.16;6186374;23;20178;-88
2023/01/25 19:37:18;;;;;;;15.10;9.97;;;;;;;2.20;89.91;96229.72;6186405;23;20194;-88
2023/01/25 19:39:45;;;;;;;16.27;10.13;;;;;;;2.17;89.48;96224.06;6186667;23;20178;-87
2023/01/25 19:42:11;;;;;;;17.60;10.97;;;;;;;2.15;90.35;96224.16;6185604;23;20275;-88
2023/01/25 19:44:37;;;;;;;15.67;10.50;;;;;;;2.23;90.53;96228.72;6185486;23;20169;-87
2023/01/25 19:47:09;;;;;;;14.90;10.43;;;;;;;2.27;89.68;96220.78;6186420;23;20209;-88
2023/01/25 19:49:35;;;;;;;15.87;10.63;;;;;;;2.31;89.16;96223.91;6185912;23;20182;-88
2023/01/25 19:52:03;;;;;;;15.57;11.10;;;;;;;2.37;88.93;96214.09;6185651;23;20178;-87
2023/01/25 19:54:36;;;;;;;17.30;11.50;;;;;;;2.41;88.18;96212.16;6186304;23;20261;-87
2023/01/25 19:57:03;;;;;;;19.17;12.53;;;;;;;2.45;87.91;96211.00;6186405;23;20245;-87
2023/01/25 19:59:29;;;;;;;16.43;10.97;;;;;;;2.50;87.77;96205.59;6185573;23;20206;-88
2023/01/25 20:01:58;;;;;;;14.60;10.80;;;;;;;2.51;87.53;96202.09;6186038;23;20181;-87
2023/01/25 20:04:27;;;;;;;14.80;10.93;;;;;;;2.52;87.53;96186.75;6185732;23;20181;-89
2023/01/25 20:06:53;;;;;;;18.73;11.30;;;;;;;2.54;87.25;96196.81;6185405;23;20201;-87
2023/01/25 20:09:26;;;;;;;14.50;10.03;;;;;;;2.58;87.18;96188.84;6187224;23;20217;-87
2023/01/25 20:12:06;;;;;;;12.10;8.87;;;;;;;2.50;85.63;96182.72;6186480;23;20535;-87
2023/01/25 20:14:33;;;;;;;15.50;10.97;;;;;;;2.30;86.40;96187.53;6186257;23;20174;-88
2023/01/25 20:17:00;;;;;;;14.97;11.03;;;;;;;2.31;87.77;96195.97;6184517;23;20204;-88
2023/01/25 20:19:27;;;;;;;14.37;9.90;;;;;;;2.32;87.67;96184.84;6184448;23;20170;-87
2023/01/25 20:21:57;;;;;;;14.80;10.53;;;;;;;2.30;87.01;96181.63;6186160;23;20221;-88
2023/01/25 20:24:26;;;;;;;14.87;10.20;;;;;;;2.24;87.12;96177.78;6186002;23;20245;-88
2023/01/25 20:26:53;;;;;;;15.80;9.93;;;;;;;2.28;88.04;96174.13;6185741;23;20277;-89
2023/01/25 20:29:31;;;;;;;17.80;10.37;;;;;;;2.25;87.49;96173.53;6185640;23;20198;-87
2023/01/25 20:31:57;;;;;;;16.90;10.23;;;;;;;2.32;88.31;96172.94;6185467;23;20181;-89
2023/01/25 20:34:25;;;;;;;16.23;10.83;;;;;;;2.29;88.02;96177.47;6185408;23;20171;-88
2023/01/25 20:36:54;;;;;;;15.03;10.20;;;;;;;2.35;87.55;96175.28;6183995;23;20194;-89
2023/01/25 20:39:33;;;;;;;13.50;10.07;;;;;;;2.40;87.40;96169.88;6185595;23;20249;-87
2023/01/25 20:42:05;;;;;;;15.10;11.07;;;;;;;2.49;87.13;96163.31;6185488;23;20159;-88
2023/01/25 20:44:36;;;;;;;13.30;9.43;;;;;;;2.52;86.92;96157.97;6185503;23;20169;-88
2023/01/25 20:47:09;;;;;;;14.03;9.63;;;;;;;2.51;86.30;96159.72;6184935;23;20196;-87
2023/01/25 20:49:37;;;;;;;13.47;10.07;;;;;;;2.51;86.13;96154.63;6185805;23;20202;-87
2023/01/25 20:52:06;;;;;;;13.23;9.17;;;;;;;2.38;85.58;96159.00;6184590;23;20197;-87
2023/01/25 20:54:43;;;;;;;14.20;9.77;;;;;;;2.41;85.92;96153.69;6185044;23;20253;-87
2023/01/25 20:57:10;;;;;;;15.17;9.43;;;;;;;2.16;85.64;96157.22;6186158;23;20537;-87
2023/01/25 20:59:37;;;;;;;13.37;9.47;;;;;;;2.21;86.87;96157.69;6186206;23;20170;-88
2023/01/25 21:02:03;;;;;;;14.40;9.43;;;;;;;2.28;86.71;96142.81;6186038;23;20178;-88
2023/01/25 21:04:34;;;;;;;14.57;10.03;;;;;;;2.32;86.34;96150.09;6184425;23;20232;-88
2023/01/25 21:07:01;;;;;;;13.60;9.13;;;;;;;2.32;86.03;96142.47;6186131;23;20370;-87
2023/01/25 21:09:30;;;;;;;12.73;9.07;;;;;;;2.24;85.52;96146.50;6186362;23;20206;-87
2023/01/25 21:12:01;;;;;;;13.70;9.87;;;;;;;2.21;86.14;96141.63;6187493;23;20208;-87
2023/01/25 21:14:30;;;;;;;12.43;9.07;;;;;;;2.20;85.81;96138.28;6187656;23;20177;-88
2023/01/25 21:16:56;;;;;;;14.93;10.20;;;;;;;2.19;86.28;96136.66;6187428;23;20225;-88
2023/01/25 21:19:28;;;;;;;14.33;10.37;;;;;;;2.02;85.93;96144.69;6185573;23;20185;-87
2023/01/25 21:21:54;;;;;;;12.50;9.40;;;;;;;1.83;86.27;96145.22;6187656;23;20161;-87
2023/01/25 21:24:21;;;;;;;11.57;8.33;;;;;;;1.82;86.91;96138.50;6187525;23;20513;-88
2023/01/25 21:26:49;;;;;;;12.77;8.87;;;;;;;1.88;86.68;96137.28;6186527;23;20198;-88
2023/01/25 21:29:19;;;;;;;11.60;8.77;;;;;;;1.76;86.48;96141.47;6187159;23;20963;-88
2023/01/25 21:31:51;;;;;;;12.57;9.33;;;;;;;1.79;88.01;96136.19;6185636;23;20319;-87
2023/01/25 21:34:20;;;;;;;13.93;9.17;;;;;;;1.71;87.91;96130.84;6186149;23;20185;-87
2023/01/25 21:36:46;;;;;;;14.77;9.93;;;;;;;1.83;88.49;96129.16;6185308;23;20194;-87
2023/01/25 21:39:13;;;;;;;15.07;9.33;;;;;;;1.90;87.39;96118.47;6186910;23;20261;-87
2023/01/25 21:41:44;;;;;;;16.00;9.90;;;;;;;1.95;87.52;96123.19;6186134;23;20264;-87
2023/01/25 21:46:56;;;;;;;14.17;10.40;;;;;;;1.95;86.95;96111.31;6185738;23;20252;-87